Pirovano, Argentina
Current Conditions -  °F | °C
As of 7:00 AM on Monday 26 Jan 2015 (Local Time) from SAEZ Reporting Station
Haze Haze  
Wind Chill: 24°   Ceiling: 10000
Heat Index: 24°   Visibility: 1.8mi
Dew Point: 23°   Wind: 3mph
Humidity: 94%   Direction: 110°ESE
Pressure: 29.83"   Gusts: NA
Location:  36.5°S, 61.57°W
Report Text: SAEZ 261000Z 11003KT 110V190 3000 BR FEW023 BKN100 24/23 Q1010
Loading
Personal Weather Stations






























Interactive Weather Map New forecast layout! Learn more

10-Day Weather Forecast

Advertisements
Track Severe Weather on mobile